createdAt,value
2023-03-28T00:00:00.942Z,85.61
2023-03-28T00:01:00.928Z,85.72
2023-03-28T00:02:00.906Z,85.61
2023-03-28T00:03:00.928Z,85.72
2023-03-28T00:04:00.942Z,85.41
2023-03-28T00:05:00.880Z,85.20
2023-03-28T00:06:01.443Z,85.20
2023-03-28T00:07:00.853Z,85.20
2023-03-28T00:08:00.839Z,85.20
2023-03-28T00:09:00.848Z,85.20
2023-03-28T00:10:00.837Z,85.10
2023-03-28T00:11:00.817Z,85.10
2023-03-28T00:12:00.811Z,85.10
2023-03-28T00:13:00.800Z,85.10
2023-03-28T00:14:01.080Z,85.20
2023-03-28T00:15:00.768Z,85.10
2023-03-28T00:16:01.006Z,85.20
2023-03-28T00:17:00.752Z,85.30
2023-03-28T00:18:00.776Z,85.30
2023-03-28T00:19:00.740Z,85.30
2023-03-28T00:20:00.738Z,85.20
2023-03-28T00:21:00.705Z,85.20
2023-03-28T00:22:00.701Z,85.51
2023-03-28T00:23:00.692Z,85.41
2023-03-28T00:24:00.688Z,85.41
2023-03-28T00:25:00.699Z,85.61
2023-03-28T00:26:00.808Z,85.30
2023-03-28T00:27:00.664Z,85.10
2023-03-28T00:28:00.644Z,84.99
2023-03-28T00:29:00.631Z,85.20
2023-03-28T00:30:00.622Z,85.51
2023-03-28T00:31:00.614Z,85.30
2023-03-28T00:32:00.607Z,84.99
2023-03-28T00:33:00.629Z,85.10
2023-03-28T00:34:00.583Z,85.30
2023-03-28T00:35:00.578Z,85.30
2023-03-28T00:36:00.865Z,84.89
2023-03-28T00:37:00.560Z,84.89
2023-03-28T00:38:00.548Z,84.89
2023-03-28T00:39:00.516Z,84.89
2023-03-28T00:40:00.508Z,84.99
2023-03-28T00:41:00.503Z,84.99
2023-03-28T00:42:00.499Z,84.68
2023-03-28T00:43:00.486Z,84.58
2023-03-28T00:44:00.509Z,84.68
2023-03-28T00:45:00.445Z,84.68
2023-03-28T00:46:09.093Z,84.68
2023-03-28T00:47:01.504Z,84.68
2023-03-28T00:48:00.483Z,84.58
2023-03-28T00:49:00.416Z,84.68
2023-03-28T00:50:00.410Z,84.68
2023-03-28T00:51:00.397Z,84.37
2023-03-28T00:52:00.417Z,84.47
2023-03-28T00:53:00.365Z,84.47
2023-03-28T00:54:00.378Z,84.37
2023-03-28T00:55:00.345Z,84.16
2023-03-28T00:56:00.506Z,84.16
2023-03-28T00:57:00.416Z,84.05
2023-03-28T00:58:00.325Z,84.16
2023-03-28T00:59:00.315Z,84.27
2023-03-28T01:00:00.304Z,84.16
2023-03-28T01:01:00.313Z,84.16
2023-03-28T01:02:00.327Z,84.27
2023-03-28T01:03:00.311Z,84.37
2023-03-28T01:04:00.261Z,84.05
2023-03-28T01:05:00.246Z,84.27
2023-03-28T01:06:00.514Z,84.05
2023-03-28T01:07:00.214Z,84.05
2023-03-28T01:08:00.217Z,84.27
2023-03-28T01:09:00.205Z,84.27
2023-03-28T01:10:00.206Z,84.16
2023-03-28T01:11:00.212Z,84.27
2023-03-28T01:12:00.197Z,84.47
2023-03-28T01:13:00.154Z,84.47
2023-03-28T01:14:00.154Z,84.47
2023-03-28T01:15:00.162Z,84.47
2023-03-28T01:16:00.541Z,84.47
2023-03-28T01:17:00.137Z,84.47
2023-03-28T01:18:00.161Z,84.68
2023-03-28T01:19:00.099Z,84.58
2023-03-28T01:20:00.132Z,84.72
2023-03-28T01:21:00.114Z,84.92
2023-03-28T01:22:00.099Z,85.34
2023-03-28T01:23:00.057Z,85.44
2023-03-28T01:24:11.647Z,85.34
2023-03-28T01:25:01.019Z,85.44
2023-03-28T01:26:00.230Z,85.55
2023-03-28T01:27:00.011Z,85.65
2023-03-28T01:28:00.042Z,85.65
2023-03-28T01:28:59.987Z,85.65
2023-03-28T01:29:59.984Z,85.86
2023-03-28T01:30:59.979Z,85.75
2023-03-28T01:31:59.978Z,85.86
2023-03-28T01:32:59.971Z,85.86
2023-03-28T01:33:59.953Z,85.96
2023-03-28T01:34:59.917Z,85.96
2023-03-28T01:36:00.129Z,85.86
2023-03-28T01:36:59.894Z,86.07
2023-03-28T01:37:59.885Z,86.21
2023-03-28T01:38:59.903Z,86.32
2023-03-28T01:39:59.869Z,86.42
2023-03-28T01:40:59.854Z,86.42
2023-03-28T01:41:59.858Z,86.52
2023-03-28T01:42:59.850Z,86.63
2023-03-28T01:43:59.854Z,86.83
2023-03-28T01:44:59.832Z,86.73
2023-03-28T01:46:00.028Z,86.73
2023-03-28T01:46:59.828Z,86.73
2023-03-28T01:47:59.820Z,86.73
2023-03-28T01:48:59.805Z,86.73
2023-03-28T01:49:59.806Z,86.94
2023-03-28T01:50:59.754Z,86.83
2023-03-28T01:51:59.759Z,86.83
2023-03-28T01:52:59.768Z,86.83
2023-03-28T01:53:59.747Z,86.83
2023-03-28T01:54:59.715Z,86.94
2023-03-28T01:55:59.861Z,86.83
2023-03-28T01:56:59.803Z,86.83
2023-03-28T01:57:59.692Z,87.04
2023-03-28T01:58:59.692Z,87.15
2023-03-28T01:59:59.695Z,87.15
2023-03-28T02:00:59.676Z,87.35
2023-03-28T02:01:59.705Z,87.25
2023-03-28T02:02:59.735Z,87.35
2023-03-28T02:03:59.632Z,87.56
2023-03-28T02:04:59.622Z,87.56
2023-03-28T02:05:59.812Z,87.66
2023-03-28T02:06:59.603Z,87.77
2023-03-28T02:07:59.601Z,87.88
2023-03-28T02:08:59.553Z,87.88
2023-03-28T02:09:59.562Z,87.98
2023-03-28T02:10:59.543Z,88.09
2023-03-28T02:11:59.545Z,87.88
2023-03-28T02:12:59.549Z,87.88
2023-03-28T02:13:59.525Z,87.77
2023-03-28T02:14:59.498Z,87.88
2023-03-28T02:15:59.729Z,87.98
2023-03-28T02:16:59.485Z,87.98
2023-03-28T02:17:59.565Z,87.98
2023-03-28T02:18:59.518Z,88.09
2023-03-28T02:19:59.517Z,88.09
2023-03-28T02:20:59.466Z,88.19
2023-03-28T02:21:59.440Z,88.19
2023-03-28T02:22:59.435Z,87.98
2023-03-28T02:23:59.559Z,87.98
2023-03-28T02:24:59.429Z,87.98
2023-03-28T02:25:59.607Z,88.09
2023-03-28T02:26:59.439Z,88.09
2023-03-28T02:27:59.371Z,88.09
2023-03-28T02:28:59.377Z,88.09
2023-03-28T02:29:59.373Z,88.09
2023-03-28T02:30:59.348Z,88.09
2023-03-28T02:31:59.418Z,88.09
2023-03-28T02:32:59.368Z,88.19
2023-03-28T02:33:59.306Z,88.29
2023-03-28T02:34:59.295Z,88.29
2023-03-28T02:35:59.537Z,88.40
2023-03-28T02:36:59.280Z,88.50
2023-03-28T02:37:59.281Z,88.50
2023-03-28T02:38:59.272Z,88.40
2023-03-28T02:39:59.247Z,88.40
2023-03-28T02:40:59.240Z,88.50
2023-03-28T02:41:59.256Z,88.50
2023-03-28T02:42:59.232Z,88.60
2023-03-28T02:43:59.202Z,88.60
2023-03-28T02:44:59.205Z,88.60
2023-03-28T02:45:59.444Z,88.75
2023-03-28T02:47:01.067Z,88.81
2023-03-28T02:47:59.239Z,88.75
2023-03-28T02:48:59.167Z,88.75
2023-03-28T02:49:59.174Z,88.75
2023-03-28T02:50:59.152Z,88.75
2023-03-28T02:51:59.153Z,88.75
2023-03-28T02:52:59.140Z,88.85
2023-03-28T02:53:59.101Z,88.75
2023-03-28T02:54:59.105Z,88.85
2023-03-28T02:55:59.314Z,88.75
2023-03-28T02:56:59.106Z,88.85
2023-03-28T02:57:59.062Z,88.85
2023-03-28T02:58:59.075Z,88.85
2023-03-28T02:59:59.052Z,88.96
2023-03-28T03:00:59.043Z,88.85
2023-03-28T03:01:59.064Z,88.85
2023-03-28T03:02:59.083Z,88.75
2023-03-28T03:03:59.081Z,88.85
2023-03-28T03:04:58.996Z,88.96
2023-03-28T03:05:59.155Z,88.96
2023-03-28T03:06:58.968Z,88.96
2023-03-28T03:07:58.964Z,88.96
2023-03-28T03:08:58.969Z,89.06
2023-03-28T03:09:58.958Z,88.96
2023-03-28T03:10:58.936Z,88.96
2023-03-28T03:11:58.928Z,88.96
2023-03-28T03:12:58.934Z,88.96
2023-03-28T03:13:58.900Z,88.85
2023-03-28T03:14:58.890Z,88.96
2023-03-28T03:15:59.047Z,88.96
2023-03-28T03:16:58.884Z,88.96
2023-03-28T03:17:58.914Z,89.06
2023-03-28T03:18:58.856Z,89.06
2023-03-28T03:19:58.834Z,89.06
2023-03-28T03:20:58.835Z,88.96
2023-03-28T03:21:58.812Z,88.75
2023-03-28T03:22:58.809Z,88.79
2023-03-28T03:23:58.787Z,88.54
2023-03-28T03:24:58.795Z,88.54
2023-03-28T03:25:58.992Z,88.58
2023-03-28T03:26:58.775Z,88.58
2023-03-28T03:27:58.754Z,88.48
2023-03-28T03:28:58.776Z,88.58
2023-03-28T03:29:58.753Z,88.48
2023-03-28T03:30:58.749Z,88.58
2023-03-28T03:31:58.705Z,88.58
2023-03-28T03:32:58.746Z,88.58
2023-03-28T03:33:58.675Z,88.58
2023-03-28T03:34:58.672Z,88.58
2023-03-28T03:35:59.009Z,88.58
2023-03-28T03:36:58.668Z,88.48
2023-03-28T03:37:58.634Z,88.48
2023-03-28T03:38:58.630Z,88.37
2023-03-28T03:39:58.621Z,88.37
2023-03-28T03:40:58.616Z,88.37
2023-03-28T03:41:58.602Z,88.48
2023-03-28T03:42:58.604Z,88.48
2023-03-28T03:43:58.592Z,88.37
2023-03-28T03:44:58.575Z,88.27
2023-03-28T03:45:58.704Z,88.17
2023-03-28T03:46:58.564Z,88.17
2023-03-28T03:47:58.642Z,88.06
2023-03-28T03:48:58.521Z,88.06
2023-03-28T03:49:58.534Z,88.06
2023-03-28T03:50:58.513Z,87.96
2023-03-28T03:51:58.496Z,88.06
2023-03-28T03:52:58.534Z,88.06
2023-03-28T03:53:58.479Z,88.27
2023-03-28T03:54:58.471Z,88.27
2023-03-28T03:55:58.728Z,88.06
2023-03-28T03:56:58.491Z,88.06
2023-03-28T03:57:58.423Z,87.96
2023-03-28T03:58:58.408Z,88.17
2023-03-28T03:59:58.432Z,88.06
2023-03-28T04:00:58.389Z,88.17
2023-03-28T04:01:58.435Z,88.17
2023-03-28T04:02:58.385Z,88.27
2023-03-28T04:03:58.414Z,88.17
2023-03-28T04:04:58.365Z,87.85
2023-03-28T04:05:58.548Z,87.85
2023-03-28T04:06:58.346Z,87.96
2023-03-28T04:07:58.332Z,87.96
2023-03-28T04:08:58.327Z,87.85
2023-03-28T04:09:58.323Z,87.96
2023-03-28T04:10:58.325Z,88.17
2023-03-28T04:11:58.310Z,88.17
2023-03-28T04:12:58.267Z,88.06
2023-03-28T04:13:58.260Z,88.17
2023-03-28T04:14:58.259Z,88.17
2023-03-28T04:15:58.546Z,88.27
2023-03-28T04:16:58.253Z,88.17
2023-03-28T04:17:58.243Z,88.17
2023-03-28T04:18:58.214Z,88.17
2023-03-28T04:19:58.202Z,88.06
2023-03-28T04:20:58.193Z,88.10
2023-03-28T04:21:58.202Z,88.20
2023-03-28T04:22:58.154Z,88.20
2023-03-28T04:23:58.658Z,88.20
2023-03-28T04:24:58.136Z,88.10
2023-03-28T04:25:58.376Z,88.06
2023-03-28T04:26:58.145Z,88.10
2023-03-28T04:27:58.108Z,87.99
2023-03-28T04:28:58.105Z,87.99
2023-03-28T04:29:58.113Z,87.99
2023-03-28T04:30:58.092Z,88.20
2023-03-28T04:31:58.117Z,88.31
2023-03-28T04:32:58.166Z,88.31
2023-03-28T04:33:58.085Z,88.31
2023-03-28T04:34:58.050Z,88.31
2023-03-28T04:35:58.229Z,88.42
2023-03-28T04:36:58.034Z,88.42
2023-03-28T04:37:58.007Z,88.52
2023-03-28T04:38:58.026Z,88.52
2023-03-28T04:39:58.001Z,88.62
2023-03-28T04:40:58.036Z,88.62
2023-03-28T04:41:57.996Z,88.62
2023-03-28T04:42:57.970Z,88.52
2023-03-28T04:43:57.985Z,88.42
2023-03-28T04:44:57.931Z,88.52
2023-03-28T04:45:58.295Z,88.52
2023-03-28T04:46:57.923Z,88.52
2023-03-28T04:47:57.932Z,88.52
2023-03-28T04:48:57.934Z,88.52
2023-03-28T04:49:57.909Z,88.52
2023-03-28T04:50:57.893Z,88.52
2023-03-28T04:51:57.864Z,88.42
2023-03-28T04:52:57.862Z,88.52
2023-03-28T04:53:57.858Z,88.42
2023-03-28T04:54:57.887Z,88.31
2023-03-28T04:55:58.009Z,88.20
2023-03-28T04:56:57.871Z,88.20
2023-03-28T04:57:57.819Z,88.20
2023-03-28T04:58:57.800Z,88.20
2023-03-28T04:59:57.802Z,88.31
2023-03-28T05:00:58.051Z,88.31
2023-03-28T05:01:57.837Z,88.31
2023-03-28T05:02:57.834Z,88.31
2023-03-28T05:03:57.731Z,88.31
2023-03-28T05:04:57.739Z,88.42
2023-03-28T05:05:57.715Z,88.31
2023-03-28T05:06:57.708Z,88.31
2023-03-28T05:07:57.707Z,88.31
2023-03-28T05:08:57.684Z,88.20
2023-03-28T05:09:57.680Z,88.20
2023-03-28T05:10:57.778Z,88.20
2023-03-28T05:11:57.687Z,88.35
2023-03-28T05:12:57.644Z,88.52
2023-03-28T05:13:57.640Z,88.56
2023-03-28T05:14:57.657Z,88.56
2023-03-28T05:15:57.633Z,88.66
2023-03-28T05:16:57.597Z,88.66
2023-03-28T05:17:57.616Z,88.66
2023-03-28T05:18:58.952Z,88.73
2023-03-28T05:19:57.578Z,88.73
2023-03-28T05:20:57.734Z,88.76
2023-03-28T05:21:57.551Z,88.76
2023-03-28T05:22:57.603Z,88.87
2023-03-28T05:23:57.523Z,88.98
2023-03-28T05:24:57.517Z,88.98
2023-03-28T05:25:57.498Z,88.87
2023-03-28T05:26:57.506Z,88.87
2023-03-28T05:27:57.486Z,88.87
2023-03-28T05:28:57.465Z,88.87
2023-03-28T05:29:57.480Z,88.76
2023-03-28T05:30:57.442Z,88.87
2023-03-28T05:31:57.480Z,89.08
2023-03-28T05:32:57.514Z,89.18
2023-03-28T05:33:57.417Z,89.18
2023-03-28T05:34:57.444Z,89.29
2023-03-28T05:35:57.424Z,89.29
2023-03-28T05:36:57.379Z,89.29
2023-03-28T05:37:57.375Z,89.39
2023-03-28T05:38:57.386Z,89.50
2023-03-28T05:39:57.395Z,89.60
2023-03-28T05:40:57.650Z,89.70
2023-03-28T05:41:57.348Z,89.60
2023-03-28T05:42:57.317Z,89.50
2023-03-28T05:43:57.346Z,89.50
2023-03-28T05:44:57.308Z,89.60
2023-03-28T05:45:57.327Z,89.70
2023-03-28T05:46:57.273Z,89.81
2023-03-28T05:47:57.399Z,89.81
2023-03-28T05:48:57.296Z,89.70
2023-03-28T05:49:57.262Z,89.81
2023-03-28T05:50:57.429Z,89.81
2023-03-28T05:51:57.245Z,89.70
2023-03-28T05:52:57.227Z,89.81
2023-03-28T05:53:57.250Z,89.81
2023-03-28T05:54:57.222Z,89.81
2023-03-28T05:55:57.195Z,89.91
2023-03-28T05:56:57.212Z,89.66
2023-03-28T05:57:57.201Z,89.66
2023-03-28T05:58:57.155Z,89.56
2023-03-28T05:59:57.158Z,89.45
2023-03-28T06:00:57.161Z,89.14
2023-03-28T06:01:57.152Z,89.14
2023-03-28T06:02:57.157Z,89.14
2023-03-28T06:03:57.168Z,89.14
2023-03-28T06:04:57.202Z,89.04
2023-03-28T06:05:57.095Z,89.14
2023-03-28T06:06:57.082Z,89.25
2023-03-28T06:07:57.089Z,89.14
2023-03-28T06:08:57.067Z,89.04
2023-03-28T06:09:57.065Z,88.93
2023-03-28T06:10:57.035Z,88.83
2023-03-28T06:11:57.036Z,88.73
2023-03-28T06:12:57.040Z,88.62
2023-03-28T06:13:57.015Z,88.73
2023-03-28T06:14:57.024Z,88.68
2023-03-28T06:15:56.983Z,88.68
2023-03-28T06:16:57.003Z,88.37
2023-03-28T06:17:56.985Z,88.06
2023-03-28T06:19:10.533Z,87.96
2023-03-28T06:19:57.961Z,87.85
2023-03-28T06:20:56.933Z,87.96
2023-03-28T06:21:56.916Z,87.65
2023-03-28T06:22:56.907Z,87.85
2023-03-28T06:23:56.900Z,87.75
2023-03-28T06:24:56.879Z,87.71
2023-03-28T06:25:56.870Z,87.29
2023-03-28T06:26:56.855Z,87.29
2023-03-28T06:27:56.863Z,87.29
2023-03-28T06:28:56.853Z,86.98
2023-03-28T06:29:56.848Z,86.77
2023-03-28T06:30:56.867Z,86.46
2023-03-28T06:31:56.872Z,86.35
2023-03-28T06:32:56.850Z,86.25
2023-03-28T06:33:56.794Z,86.04
2023-03-28T06:34:56.785Z,86.04
2023-03-28T06:35:56.811Z,85.90
2023-03-28T06:36:56.778Z,85.90
2023-03-28T06:37:56.763Z,85.90
2023-03-28T06:38:56.793Z,86.21
2023-03-28T06:39:56.731Z,86.21
2023-03-28T06:40:56.747Z,86.11
2023-03-28T06:41:56.731Z,86.00
2023-03-28T06:42:56.690Z,85.90
2023-03-28T06:43:56.692Z,85.49
2023-03-28T06:44:56.703Z,85.38
2023-03-28T06:45:56.704Z,85.49
2023-03-28T06:46:56.667Z,85.55
2023-03-28T06:47:56.721Z,85.24
2023-03-28T06:48:56.627Z,84.72
2023-03-28T06:49:56.745Z,84.61
2023-03-28T06:50:56.670Z,84.61
2023-03-28T06:51:56.629Z,84.61
2023-03-28T06:52:56.608Z,84.72
2023-03-28T06:53:56.588Z,84.47
2023-03-28T06:54:56.563Z,84.58
2023-03-28T06:55:56.568Z,84.58
2023-03-28T06:56:56.596Z,84.58
2023-03-28T06:57:56.553Z,84.16
2023-03-28T06:58:56.518Z,83.95
2023-03-28T06:59:56.532Z,83.84
2023-03-28T07:00:56.568Z,83.74
2023-03-28T07:01:56.565Z,83.53
2023-03-28T07:02:56.605Z,83.18
2023-03-28T07:03:56.563Z,83.18
2023-03-28T07:04:56.452Z,82.98
2023-03-28T07:05:56.469Z,82.35
2023-03-28T07:06:56.459Z,82.25
2023-03-28T07:07:56.438Z,82.04
2023-03-28T07:08:56.434Z,82.46
2023-03-28T07:09:56.428Z,82.67
2023-03-28T07:10:56.402Z,82.87
2023-03-28T07:11:56.420Z,82.25
2023-03-28T07:12:56.374Z,81.49
2023-03-28T07:13:56.376Z,81.49
2023-03-28T07:14:56.375Z,81.80
2023-03-28T07:15:56.372Z,81.59
2023-03-28T07:16:56.412Z,81.18
2023-03-28T07:17:56.363Z,80.87
2023-03-28T07:18:56.355Z,80.76
2023-03-28T07:19:56.306Z,80.35
2023-03-28T07:21:04.027Z,80.35
2023-03-28T07:21:57.295Z,80.04
2023-03-28T07:22:56.273Z,79.93
2023-03-28T07:23:56.286Z,80.21
2023-03-28T07:24:56.264Z,80.52
2023-03-28T07:25:56.253Z,80.83
2023-03-28T07:27:11.835Z,80.21
2023-03-28T07:27:57.237Z,79.48
2023-03-28T07:28:56.217Z,79.58
2023-03-28T07:29:56.217Z,79.69
2023-03-28T07:30:56.183Z,79.48
2023-03-28T07:31:56.264Z,79.79
2023-03-28T07:33:05.226Z,80.21
2023-03-28T07:33:57.255Z,80.31
2023-03-28T07:34:56.210Z,80.41
2023-03-28T07:35:56.167Z,80.41
2023-03-28T07:36:56.131Z,79.90
2023-03-28T07:37:56.132Z,79.27
2023-03-28T07:38:56.126Z,79.38
2023-03-28T07:39:56.107Z,79.34
2023-03-28T07:40:56.117Z,79.85
2023-03-28T07:41:56.114Z,80.16
2023-03-28T07:42:56.104Z,79.96
2023-03-28T07:43:56.081Z,79.65
2023-03-28T07:44:56.035Z,79.85
2023-03-28T07:45:56.072Z,80.06
2023-03-28T07:46:56.046Z,79.55
2023-03-28T07:47:56.029Z,79.03
2023-03-28T07:48:56.008Z,78.82
2023-03-28T07:49:56.014Z,78.72
2023-03-28T07:50:55.994Z,78.41
2023-03-28T07:51:55.967Z,78.61
2023-03-28T07:52:55.975Z,78.20
2023-03-28T07:53:56.004Z,78.61
2023-03-28T07:54:55.973Z,78.58
2023-03-28T07:55:56.487Z,78.68
2023-03-28T07:56:55.972Z,78.27
2023-03-28T07:57:55.900Z,78.16
2023-03-28T07:58:55.910Z,78.27
2023-03-28T07:59:55.914Z,78.58
2023-03-28T08:00:55.878Z,77.95
2023-03-28T08:01:55.876Z,78.06
2023-03-28T08:02:55.919Z,78.47
2023-03-28T08:03:55.966Z,78.27
2023-03-28T08:04:55.868Z,78.89
2023-03-28T08:05:55.909Z,78.99
2023-03-28T08:06:55.827Z,79.06
2023-03-28T08:07:55.794Z,79.37
2023-03-28T08:08:55.798Z,79.47
2023-03-28T08:09:57.052Z,79.37
2023-03-28T08:10:55.800Z,78.23
2023-03-28T08:11:55.773Z,78.02
2023-03-28T08:12:55.758Z,77.81
2023-03-28T08:13:55.745Z,77.61
2023-03-28T08:14:55.762Z,77.50
2023-03-28T08:15:55.797Z,76.36
2023-03-28T08:16:55.725Z,75.50
2023-03-28T08:17:55.728Z,75.40
2023-03-28T08:19:03.961Z,75.09
2023-03-28T08:19:56.678Z,75.60
2023-03-28T08:20:55.699Z,75.29
2023-03-28T08:21:55.647Z,75.50
2023-03-28T08:22:55.673Z,74.95
2023-03-28T08:23:55.641Z,74.32
2023-03-28T08:24:55.633Z,74.53
2023-03-28T08:25:55.617Z,74.84
2023-03-28T08:26:55.619Z,75.15
2023-03-28T08:27:55.656Z,73.81
2023-03-28T08:28:55.578Z,72.77
2023-03-28T08:29:55.564Z,72.56
2023-03-28T08:30:55.580Z,72.98
2023-03-28T08:31:55.558Z,73.29
2023-03-28T08:32:55.633Z,73.81
2023-03-28T08:33:55.545Z,73.91
2023-03-28T08:34:55.551Z,73.71
2023-03-28T08:35:55.579Z,73.60
2023-03-28T08:36:55.486Z,73.57
2023-03-28T08:37:55.496Z,74.40
2023-03-28T08:38:55.464Z,75.12
2023-03-28T08:39:55.453Z,74.81
2023-03-28T08:40:55.458Z,74.71
2023-03-28T08:41:55.455Z,74.19
2023-03-28T08:42:55.433Z,72.85
2023-03-28T08:43:55.426Z,71.91
2023-03-28T08:44:55.413Z,70.53
2023-03-28T08:45:55.590Z,69.19
2023-03-28T08:46:55.495Z,68.98
2023-03-28T08:47:55.473Z,68.67
2023-03-28T08:48:55.371Z,68.36
2023-03-28T08:49:55.354Z,67.95
2023-03-28T08:50:55.340Z,68.67
2023-03-28T08:51:55.350Z,68.67
2023-03-28T08:52:55.335Z,69.09
2023-03-28T08:53:55.369Z,69.71
2023-03-28T08:54:55.305Z,70.64
2023-03-28T08:55:55.289Z,69.60
2023-03-28T08:56:55.292Z,68.88
2023-03-28T08:57:55.265Z,68.05
2023-03-28T08:58:55.279Z,68.46
2023-03-28T08:59:55.241Z,67.74
2023-03-28T09:00:55.239Z,67.22
2023-03-28T09:01:55.350Z,67.22
2023-03-28T09:02:55.347Z,67.43
2023-03-28T09:03:55.348Z,67.12
2023-03-28T09:05:02.113Z,67.12
2023-03-28T09:05:56.184Z,67.22
2023-03-28T09:06:55.332Z,66.26
2023-03-28T09:07:55.183Z,66.78
2023-03-28T09:08:55.156Z,66.99
2023-03-28T09:09:55.153Z,67.50
2023-03-28T09:10:55.155Z,66.47
2023-03-28T09:11:55.140Z,65.95
2023-03-28T09:12:55.099Z,66.36
2023-03-28T09:13:55.090Z,66.78
2023-03-28T09:14:55.111Z,66.99
2023-03-28T09:15:55.148Z,66.96
2023-03-28T09:16:55.112Z,66.44
2023-03-28T09:17:55.079Z,65.06
2023-03-28T09:18:55.062Z,65.89
2023-03-28T09:19:55.032Z,66.82
2023-03-28T09:20:55.025Z,64.73
2023-03-28T09:22:05.049Z,64.21
2023-03-28T09:22:56.067Z,64.90
2023-03-28T09:23:54.993Z,64.59
2023-03-28T09:24:54.972Z,63.87
2023-03-28T09:25:54.984Z,64.59
2023-03-28T09:26:54.956Z,64.18
2023-03-28T09:27:54.957Z,63.46
2023-03-28T09:28:54.957Z,62.50
2023-03-28T09:29:54.950Z,62.71
2023-03-28T09:30:54.923Z,62.60
2023-03-28T09:31:54.970Z,62.99
2023-03-28T09:32:54.982Z,61.54
2023-03-28T09:33:54.949Z,61.24
2023-03-28T09:34:54.889Z,62.68
2023-03-28T09:35:54.889Z,62.88
2023-03-28T09:36:55.551Z,63.19
2023-03-28T09:37:54.843Z,63.57
2023-03-28T09:38:54.831Z,62.75
2023-03-28T09:39:54.825Z,62.85
2023-03-28T09:40:54.807Z,61.31
2023-03-28T09:41:54.811Z,61.31
2023-03-28T09:42:54.790Z,60.66
2023-03-28T09:43:56.252Z,57.98
2023-03-28T09:44:55.172Z,56.88
2023-03-28T09:45:54.760Z,57.09
2023-03-28T09:46:54.756Z,56.46
2023-03-28T09:47:54.777Z,56.98
2023-03-28T09:48:54.873Z,57.18
2023-03-28T09:50:05.654Z,57.32
2023-03-28T09:50:55.713Z,57.83
2023-03-28T09:51:54.695Z,58.97
2023-03-28T09:52:54.676Z,59.48
2023-03-28T09:53:54.662Z,60.00
2023-03-28T09:54:54.686Z,60.38
2023-03-28T09:56:03.264Z,59.97
2023-03-28T09:56:55.652Z,60.38
2023-03-28T09:57:54.617Z,59.66
2023-03-28T09:58:54.645Z,59.35
2023-03-28T09:59:54.605Z,59.56
2023-03-28T10:00:54.751Z,58.63
2023-03-28T10:01:54.671Z,58.73
2023-03-28T10:02:54.646Z,57.32
2023-03-28T10:03:54.590Z,55.57
2023-03-28T10:04:54.579Z,56.18
2023-03-28T10:05:54.529Z,56.18
2023-03-28T10:06:54.528Z,56.39
2023-03-28T10:07:54.521Z,57.11
2023-03-28T10:08:54.537Z,57.11
2023-03-28T10:09:54.516Z,57.11
2023-03-28T10:10:54.996Z,57.42
2023-03-28T10:11:54.695Z,57.01
2023-03-28T10:12:54.485Z,57.11
2023-03-28T10:13:54.448Z,56.49
2023-03-28T10:14:54.441Z,56.46
2023-03-28T10:15:54.456Z,55.95
2023-03-28T10:16:54.414Z,56.77
2023-03-28T10:17:54.457Z,56.88
2023-03-28T10:18:54.424Z,57.29
2023-03-28T10:19:54.381Z,57.39
2023-03-28T10:20:54.370Z,57.29
2023-03-28T10:21:54.429Z,58.32
2023-03-28T10:22:54.362Z,58.11
2023-03-28T10:23:54.338Z,56.98
2023-03-28T10:24:54.354Z,56.16
2023-03-28T10:25:54.356Z,56.77
2023-03-28T10:26:54.309Z,57.09
2023-03-28T10:27:54.304Z,57.09
2023-03-28T10:28:54.321Z,57.60
2023-03-28T10:29:54.270Z,57.18
2023-03-28T10:30:54.313Z,57.70
2023-03-28T10:31:54.270Z,58.01
2023-03-28T10:32:54.309Z,57.70
2023-03-28T10:33:54.242Z,57.39
2023-03-28T10:34:54.229Z,57.18
2023-03-28T10:35:54.301Z,56.65
2023-03-28T10:36:54.219Z,57.57
2023-03-28T10:37:54.199Z,57.68
2023-03-28T10:38:54.200Z,58.06
2023-03-28T10:39:54.177Z,57.24
2023-03-28T10:40:54.214Z,57.03
2023-03-28T10:41:54.166Z,56.31
2023-03-28T10:42:54.168Z,57.14
2023-03-28T10:43:54.141Z,57.34
2023-03-28T10:44:54.119Z,56.52
2023-03-28T10:45:54.158Z,56.21
2023-03-28T10:46:54.116Z,56.49
2023-03-28T10:47:54.104Z,55.77
2023-03-28T10:48:54.107Z,55.05
2023-03-28T10:49:54.101Z,55.36
2023-03-28T10:50:54.084Z,55.87
2023-03-28T10:51:54.063Z,55.77
2023-03-28T10:52:54.085Z,55.66
2023-03-28T10:53:54.026Z,56.46
2023-03-28T10:54:54.013Z,56.15
2023-03-28T10:55:54.024Z,56.02
2023-03-28T10:56:54.012Z,53.56
2023-03-28T10:57:53.980Z,52.53
2023-03-28T10:58:53.987Z,53.74
2023-03-28T10:59:54.064Z,53.85
2023-03-28T11:00:53.954Z,54.15
2023-03-28T11:01:54.017Z,54.64
2023-03-28T11:02:54.029Z,54.64
2023-03-28T11:03:54.010Z,54.21
2023-03-28T11:04:53.924Z,53.79
2023-03-28T11:06:08.193Z,53.36
2023-03-28T11:06:54.901Z,52.64
2023-03-28T11:07:53.885Z,52.44
2023-03-28T11:08:53.855Z,53.12
2023-03-28T11:09:53.851Z,52.10
2023-03-28T11:10:53.859Z,52.41
2023-03-28T11:11:53.857Z,52.28
2023-03-28T11:12:55.638Z,51.87
2023-03-28T11:13:53.806Z,51.05
2023-03-28T11:14:53.814Z,51.15
2023-03-28T11:15:53.850Z,52.18
2023-03-28T11:16:53.795Z,52.28
2023-03-28T11:17:53.812Z,51.54
2023-03-28T11:18:53.762Z,50.82
2023-03-28T11:19:53.777Z,49.93
2023-03-28T11:20:53.729Z,50.34
2023-03-28T11:21:53.745Z,50.36
2023-03-28T11:23:04.612Z,51.28
2023-03-28T11:23:54.690Z,51.18
2023-03-28T11:24:53.713Z,51.28
2023-03-28T11:25:53.678Z,50.97
2023-03-28T11:26:57.466Z,51.39
2023-03-28T11:27:54.689Z,50.67
2023-03-28T11:28:53.660Z,50.87
2023-03-28T11:29:53.622Z,51.15
2023-03-28T11:30:53.636Z,50.34
2023-03-28T11:31:53.655Z,50.64
2023-03-28T11:32:53.659Z,50.56
2023-03-28T11:33:53.755Z,50.97
2023-03-28T11:34:53.576Z,51.18
2023-03-28T11:35:53.644Z,51.15
2023-03-28T11:36:53.566Z,51.56
2023-03-28T11:37:53.555Z,51.56
2023-03-28T11:38:53.561Z,51.23
2023-03-28T11:39:53.523Z,51.44
2023-03-28T11:40:53.547Z,51.51
2023-03-28T11:41:53.515Z,51.72
2023-03-28T11:42:53.493Z,50.98
2023-03-28T11:43:53.477Z,50.26
2023-03-28T11:44:53.478Z,50.24
2023-03-28T11:45:53.576Z,51.06
2023-03-28T11:46:53.497Z,49.71
2023-03-28T11:47:53.484Z,49.81
2023-03-28T11:48:53.452Z,50.32
2023-03-28T11:49:53.435Z,49.91
2023-03-28T11:50:53.439Z,49.40
2023-03-28T11:51:53.411Z,49.09
2023-03-28T11:52:53.388Z,49.09
2023-03-28T11:53:53.371Z,49.50
2023-03-28T11:54:53.384Z,48.46
2023-03-28T11:55:53.375Z,48.76
2023-03-28T11:56:53.393Z,48.33
2023-03-28T11:57:53.325Z,46.90
2023-03-28T11:58:53.374Z,46.70
2023-03-28T11:59:53.300Z,47.13
2023-03-28T12:00:53.328Z,47.13
2023-03-28T12:01:53.314Z,47.53
2023-03-28T12:02:53.442Z,47.92
2023-03-28T12:03:53.359Z,47.61
2023-03-28T12:04:53.249Z,47.20
2023-03-28T12:05:57.791Z,47.29
2023-03-28T12:07:02.311Z,47.29
2023-03-28T12:07:54.260Z,47.19
2023-03-28T12:08:53.220Z,47.67
2023-03-28T12:09:53.198Z,47.55
2023-03-28T12:10:53.199Z,46.94
2023-03-28T12:11:53.163Z,46.92
2023-03-28T12:12:53.181Z,46.20
2023-03-28T12:14:01.285Z,45.49
2023-03-28T12:14:54.181Z,45.89
2023-03-28T12:15:53.172Z,47.32
2023-03-28T12:16:53.159Z,46.71
2023-03-28T12:17:53.180Z,45.89
2023-03-28T12:18:53.110Z,46.20
2023-03-28T12:19:53.131Z,45.36
2023-03-28T12:20:53.091Z,45.85
2023-03-28T12:21:53.092Z,45.40
2023-03-28T12:22:53.055Z,44.67
2023-03-28T12:23:53.064Z,44.73
2023-03-28T12:24:53.047Z,44.28
2023-03-28T12:25:53.096Z,42.23
2023-03-28T12:26:55.471Z,42.13
2023-03-28T12:27:52.997Z,41.62
2023-03-28T12:28:52.996Z,41.19
2023-03-28T12:29:52.992Z,40.67
2023-03-28T12:30:52.967Z,40.45
2023-03-28T12:31:52.991Z,40.31
2023-03-28T12:32:53.003Z,39.09
2023-03-28T12:33:52.946Z,40.27
2023-03-28T12:34:52.949Z,40.23
2023-03-28T12:35:53.009Z,38.78
2023-03-28T12:36:53.443Z,37.85
2023-03-28T12:37:52.924Z,38.12
2023-03-28T12:38:53.956Z,38.10
2023-03-28T12:39:54.837Z,38.39
2023-03-28T12:40:52.877Z,37.16
2023-03-28T12:41:52.855Z,37.74
2023-03-28T12:42:52.826Z,36.72
2023-03-28T12:43:52.834Z,35.41
2023-03-28T12:44:52.827Z,35.11
2023-03-28T12:45:52.870Z,35.43
2023-03-28T12:46:52.793Z,34.04
2023-03-28T12:47:52.838Z,33.95
2023-03-28T12:48:52.769Z,34.07
2023-03-28T12:49:52.788Z,33.78
2023-03-28T12:50:52.757Z,34.20
2023-03-28T12:51:52.744Z,34.03